M/T Pazar — TCMC — position and weather

sailwx.info

Track history (hours):
 
Tides and Currents Weather Stations Pressure Air Temp Water Temp Dewpoint Dewpoint Depression Visibility Wind Speed Wind Dir Waves Ship Positions

M/T Pazar

Last reported at 2014-Jul-23 13:33 UTC. Time now 2014-Sep-03 07:30 UTC.
Position N 40°51' E 029°15'.
Warning: this ship's position is 41 days out of date.

Length 85 m; draft 3.8 m.

Type: Ship (hazmat cat B). MMSI: 271000251.

Date/timePositionNaut miles runAvg speedWind from/ knotsBaromVisibWave heightAir tempDewpointWater temp
2014-Jul-23 13:33N 40°51' E 029°15'1 0.9
2014-Jul-23 12:30N 40°50' E 029°14'0 0.0
2014-Jul-23 11:18N 40°50' E 029°14'  
2014-Jul-21 06:21N 39°12' E 025°38'16 9.1
2014-Jul-21 04:34N 38°58' E 025°27'  
2014-Jul-18 12:12N 36°36' E 014°54'17 9.1
2014-Jul-18 10:22N 36°41' E 014°34'7 9.2
2014-Jul-18 09:33N 36°43' E 014°25'9 9.4
2014-Jul-18 08:33N 36°45' E 014°13'9 9.4
2014-Jul-18 07:33N 36°48' E 014°02'  
2014-Jul-15 23:08N 38°57' E 002°58'9 8.8
2014-Jul-15 22:04N 38°59' E 002°46'5 9.2
2014-Jul-15 21:33N 39°00' E 002°40'9 9.2
2014-Jul-15 20:33N 39°03' E 002°29'9 9.4
2014-Jul-15 19:33N 39°05' E 002°17'9 9.1
2014-Jul-15 18:33N 39°07' E 002°05'10 9.6
2014-Jul-15 17:33N 39°09' E 001°53'9 9.4
2014-Jul-15 16:33N 39°11' E 001°42'13 9.6
2014-Jul-15 15:13N 39°13' E 001°25'8 9.1
2014-Jul-15 14:20N 39°15' E 001°15'8 9.6
2014-Jul-15 13:27N 39°16' E 001°04'64 1.4
2014-Jul-13 15:27N 39°24' W 000°17'  
Track history (hours):
 
Tides and Currents Weather Stations Pressure Air Temp Water Temp Dewpoint Dewpoint Depression Visibility Wind Speed Wind Dir Waves Ship Positions

M/T Pazar

Last reported at 2014-Jul-23 13:33 UTC. Time now 2014-Sep-03 07:30 UTC.
Position N 40°51' E 029°15'.
Warning: this ship's position is 41 days out of date.

Length 85 m; draft 3.8 m.

Type: Ship (hazmat cat B). MMSI: 271000251.

Date/timePositionNaut miles runAvg speedWind from/ knotsBaromVisibWave heightAir tempDewpointWater temp
2014-Jul-23 13:33N 40°51' E 029°15'1 0.9
2014-Jul-23 12:30N 40°50' E 029°14'0 0.0
2014-Jul-23 11:18N 40°50' E 029°14'  
2014-Jul-21 06:21N 39°12' E 025°38'16 9.1
2014-Jul-21 04:34N 38°58' E 025°27'  
2014-Jul-18 12:12N 36°36' E 014°54'17 9.1
2014-Jul-18 10:22N 36°41' E 014°34'7 9.2
2014-Jul-18 09:33N 36°43' E 014°25'9 9.4
2014-Jul-18 08:33N 36°45' E 014°13'9 9.4
2014-Jul-18 07:33N 36°48' E 014°02'  
2014-Jul-15 23:08N 38°57' E 002°58'9 8.8
2014-Jul-15 22:04N 38°59' E 002°46'5 9.2
2014-Jul-15 21:33N 39°00' E 002°40'9 9.2
2014-Jul-15 20:33N 39°03' E 002°29'9 9.4
2014-Jul-15 19:33N 39°05' E 002°17'9 9.1
2014-Jul-15 18:33N 39°07' E 002°05'10 9.6
2014-Jul-15 17:33N 39°09' E 001°53'9 9.4
2014-Jul-15 16:33N 39°11' E 001°42'13 9.6
2014-Jul-15 15:13N 39°13' E 001°25'8 9.1
2014-Jul-15 14:20N 39°15' E 001°15'8 9.6
2014-Jul-15 13:27N 39°16' E 001°04'64 1.4
2014-Jul-13 15:27N 39°24' W 000°17'  

Dump ship's entire track history